aviador You're here:

YSNF Decoded Metar

NORFOLK ISLAND in AUSTRALIA
Report Time2017-09-24 01:00:00
UTC Time2017-09-24 01:28:16
Flight Rules mvfr MVFR
Wind060° at 10 kt
W.Decomp.*RWY 04: 10.0 kt HW 0.9 kt RCW
RWY 11: 4.2 kt HW 9.1 kt LCW
W.Rank060° ranks 15
Current wind is above 060° avg. (9.8)
Visibility9999 m
Phenomena:N/A
Clouds:Broken 026 Hf
Expected CloudBase > 2,400 ft AGL from Temp-Dew spread
Ceiling2,600 ft
Temp18°C (ISA +4)
Dew Point12°C (68% RH)
AAT15.0°C
QNH1021 hPa
Density Alt715 ft
Elevation358 ft
Report Wrong Elevation
Raw Report
METAR YSNF 240100Z AUTO 06010KT 010V080 9999 // BKN026 18/12 Q1021=

Extra information for YSNF:More info

Metar Taf Metar & Taf Last 4 Metars F.Rules Stats Wind Profile Meteogram Temp Stats Airport Information Weather charts Add Link Nearby VenuesMetar ALERT Operation Metar Decoded Social comments